createdAt,value
2019-05-20T00:02:28.246Z,14.93
2019-05-20T00:04:55.178Z,11.50
2019-05-20T00:07:24.076Z,13.10
2019-05-20T00:09:52.941Z,13.77
2019-05-20T00:12:21.902Z,10.57
2019-05-20T00:14:50.832Z,14.57
2019-05-20T00:17:19.723Z,13.03
2019-05-20T00:19:50.732Z,8.60
2019-05-20T00:22:19.229Z,13.83
2019-05-20T00:24:48.098Z,13.57
2019-05-20T00:27:17.066Z,14.17
2019-05-20T00:29:46.057Z,13.47
2019-05-20T00:32:15.070Z,14.27
2019-05-20T00:34:44.130Z,13.70
2019-05-20T00:37:13.354Z,9.97
2019-05-20T00:39:42.299Z,14.20
2019-05-20T00:42:11.248Z,13.90
2019-05-20T00:44:40.398Z,12.97
2019-05-20T00:47:09.741Z,13.13
2019-05-20T00:49:38.658Z,13.37
2019-05-20T00:52:07.642Z,13.00
2019-05-20T00:54:36.661Z,12.73
2019-05-20T00:57:06.424Z,9.73
2019-05-20T00:59:35.271Z,13.60
2019-05-20T01:02:04.282Z,14.20
2019-05-20T01:04:33.237Z,15.17
2019-05-20T01:07:02.185Z,15.80
2019-05-20T01:09:31.071Z,15.50
2019-05-20T01:11:59.900Z,7.10
2019-05-20T01:14:28.854Z,16.03
2019-05-20T01:16:57.803Z,15.20
2019-05-20T01:19:26.841Z,8.90
2019-05-20T01:21:55.802Z,15.93
2019-05-20T01:24:24.875Z,18.03
2019-05-20T01:26:53.891Z,16.40
2019-05-20T01:29:22.894Z,17.60
2019-05-20T01:31:51.735Z,15.63
2019-05-20T01:34:20.740Z,15.00
2019-05-20T01:36:49.684Z,15.63
2019-05-20T01:39:18.763Z,14.90
2019-05-20T01:41:47.682Z,12.33
2019-05-20T01:44:16.718Z,14.03
2019-05-20T01:46:45.739Z,14.53
2019-05-20T01:49:14.733Z,13.20
2019-05-20T01:51:43.566Z,13.00
2019-05-20T01:54:12.482Z,10.73
2019-05-20T01:56:41.459Z,12.77
2019-05-20T01:59:10.464Z,12.73
2019-05-20T02:01:39.439Z,14.37
2019-05-20T02:04:08.294Z,10.87
2019-05-20T02:06:37.319Z,6.97
2019-05-20T02:09:09.026Z,13.40
2019-05-20T02:11:37.975Z,7.63
2019-05-20T02:14:10.899Z,13.50
2019-05-20T02:16:39.833Z,14.23
2019-05-20T02:19:08.871Z,15.20
2019-05-20T02:21:37.866Z,14.30
2019-05-20T02:24:06.903Z,14.53
2019-05-20T02:26:35.889Z,11.70
2019-05-20T02:29:04.898Z,7.67
2019-05-20T02:31:33.835Z,14.10
2019-05-20T02:34:02.865Z,12.03
2019-05-20T02:36:31.726Z,14.57
2019-05-20T02:39:00.614Z,13.83
2019-05-20T02:41:29.555Z,14.13
2019-05-20T02:43:58.442Z,12.83
2019-05-20T02:46:27.382Z,12.77
2019-05-20T02:48:56.331Z,14.67
2019-05-20T02:51:31.216Z,14.13
2019-05-20T02:54:01.600Z,14.20
2019-05-20T02:56:30.839Z,13.77
2019-05-20T02:58:59.780Z,11.00
2019-05-20T03:01:28.831Z,14.07
2019-05-20T03:04:10.791Z,13.37
2019-05-20T03:06:28.585Z,13.53
2019-05-20T03:08:57.478Z,14.70
2019-05-20T03:11:26.457Z,13.83
2019-05-20T03:13:55.340Z,12.20
2019-05-20T03:16:24.221Z,9.17
2019-05-20T03:18:53.292Z,13.63
2019-05-20T03:21:22.422Z,7.13
2019-05-20T03:23:51.365Z,13.03
2019-05-20T03:26:20.423Z,11.93
2019-05-20T03:28:49.371Z,8.20
2019-05-20T03:31:18.336Z,12.80
2019-05-20T03:33:47.224Z,11.67
2019-05-20T03:36:16.203Z,12.23
2019-05-20T03:38:45.067Z,11.93
2019-05-20T03:41:14.027Z,11.87
2019-05-20T03:43:42.984Z,10.03
2019-05-20T03:46:11.863Z,9.87
2019-05-20T03:48:40.888Z,7.50
2019-05-20T03:51:09.912Z,10.07
2019-05-20T03:53:38.858Z,10.77
2019-05-20T03:56:07.807Z,10.97
2019-05-20T03:58:36.840Z,11.23
2019-05-20T04:01:05.791Z,8.90
2019-05-20T04:03:34.866Z,9.93
2019-05-20T04:06:04.214Z,5.23
2019-05-20T04:08:33.159Z,10.07
2019-05-20T04:11:02.087Z,10.93
2019-05-20T04:13:34.477Z,9.97
2019-05-20T04:16:01.770Z,10.97
2019-05-20T04:18:30.831Z,10.03
2019-05-20T04:20:59.893Z,11.00
2019-05-20T04:23:28.941Z,11.63
2019-05-20T04:25:57.928Z,10.80
2019-05-20T04:28:26.881Z,11.37
2019-05-20T04:30:56.296Z,12.27
2019-05-20T04:33:25.238Z,12.30
2019-05-20T04:35:54.230Z,12.83
2019-05-20T04:38:23.169Z,14.03
2019-05-20T04:40:52.215Z,14.70
2019-05-20T04:43:21.239Z,13.00
2019-05-20T04:45:50.663Z,8.67
2019-05-20T04:48:19.549Z,7.57
2019-05-20T04:50:48.588Z,8.67
2019-05-20T04:53:17.614Z,13.83
2019-05-20T04:55:46.626Z,15.20
2019-05-20T04:58:15.650Z,12.60
2019-05-20T05:00:55.795Z,15.53
2019-05-20T05:03:25.053Z,14.50
2019-05-20T05:05:54.482Z,9.43
2019-05-20T05:08:23.855Z,14.27
2019-05-20T05:10:52.904Z,13.70
2019-05-20T05:13:23.037Z,10.93
2019-05-20T05:15:52.288Z,13.20
2019-05-20T05:18:21.587Z,14.00
2019-05-20T05:20:50.714Z,6.30
2019-05-20T05:23:19.777Z,12.57
2019-05-20T05:25:48.820Z,8.67
2019-05-20T05:28:17.747Z,8.73
2019-05-20T05:30:48.013Z,12.63
2019-05-20T05:33:17.051Z,10.07
2019-05-20T05:35:53.263Z,9.93
2019-05-20T05:38:17.098Z,12.30
2019-05-20T05:40:46.048Z,12.20
2019-05-20T05:43:14.974Z,10.83
2019-05-20T05:45:44.013Z,10.93
2019-05-20T05:48:12.949Z,8.07
2019-05-20T05:50:42.055Z,11.20
2019-05-20T05:53:11.043Z,10.83
2019-05-20T05:55:40.075Z,10.60
2019-05-20T05:58:09.181Z,10.97
2019-05-20T06:00:38.197Z,10.63
2019-05-20T06:03:07.224Z,9.83
2019-05-20T06:05:36.263Z,7.77
2019-05-20T06:08:05.265Z,8.07
2019-05-20T06:10:35.940Z,7.47
2019-05-20T06:13:05.128Z,7.37
2019-05-20T06:15:34.158Z,8.20
2019-05-20T06:18:03.138Z,8.20
2019-05-20T06:20:32.197Z,8.23
2019-05-20T06:23:01.071Z,5.07
2019-05-20T06:25:30.070Z,8.70
2019-05-20T06:27:59.092Z,8.20
2019-05-20T06:30:41.094Z,4.53
2019-05-20T06:33:10.106Z,5.93
2019-05-20T06:35:39.267Z,7.67
2019-05-20T06:38:13.263Z,6.30
2019-05-20T06:40:42.289Z,6.47
2019-05-20T06:43:11.361Z,5.67
2019-05-20T06:45:40.379Z,6.97
2019-05-20T06:48:09.311Z,6.60
2019-05-20T06:50:38.219Z,7.50
2019-05-20T06:53:07.181Z,7.37
2019-05-20T06:55:36.067Z,6.27
2019-05-20T06:58:05.074Z,7.37
2019-05-20T07:00:36.137Z,7.27
2019-05-20T07:03:05.751Z,7.10
2019-05-20T07:05:35.163Z,7.77
2019-05-20T07:08:04.282Z,7.80
2019-05-20T07:10:33.314Z,8.80
2019-05-20T07:13:02.440Z,7.70
2019-05-20T07:15:31.431Z,6.47
2019-05-20T07:18:00.468Z,7.20
2019-05-20T07:20:29.632Z,6.00
2019-05-20T07:22:58.829Z,7.63
2019-05-20T07:25:27.800Z,6.77
2019-05-20T07:27:56.806Z,6.67
2019-05-20T07:30:25.796Z,4.63
2019-05-20T07:32:54.747Z,7.53
2019-05-20T07:35:30.090Z,7.37
2019-05-20T07:37:54.616Z,7.00
2019-05-20T07:40:31.551Z,6.33
2019-05-20T07:43:00.612Z,6.27
2019-05-20T07:45:32.926Z,5.80
2019-05-20T07:48:02.425Z,5.70
2019-05-20T07:50:31.469Z,4.63
2019-05-20T07:53:00.800Z,5.53
2019-05-20T07:55:33.139Z,5.10
2019-05-20T07:58:06.850Z,4.83
2019-05-20T08:00:36.526Z,4.67
2019-05-20T08:03:05.643Z,5.43
2019-05-20T08:05:34.685Z,4.60
2019-05-20T08:08:03.630Z,5.97
2019-05-20T08:10:32.680Z,5.80
2019-05-20T08:13:01.725Z,5.97
2019-05-20T08:15:30.797Z,5.20
2019-05-20T08:17:59.863Z,5.17
2019-05-20T08:20:28.916Z,6.07
2019-05-20T08:22:57.898Z,6.07
2019-05-20T08:25:26.925Z,4.97
2019-05-20T08:27:55.971Z,5.40
2019-05-20T08:30:33.047Z,5.60
2019-05-20T08:33:02.051Z,7.30
2019-05-20T08:35:31.122Z,5.43
2019-05-20T08:38:00.289Z,7.40
2019-05-20T08:40:29.307Z,6.70
2019-05-20T08:42:58.376Z,7.43
2019-05-20T08:45:27.287Z,6.67
2019-05-20T08:47:56.160Z,5.07
2019-05-20T08:50:25.204Z,4.83
2019-05-20T08:52:54.241Z,4.80
2019-05-20T08:55:24.225Z,5.20
2019-05-20T08:57:53.348Z,3.97
2019-05-20T09:00:24.823Z,4.63
2019-05-20T09:02:54.434Z,6.50
2019-05-20T09:05:23.444Z,3.70
2019-05-20T09:08:02.214Z,5.30
2019-05-20T09:10:23.278Z,5.17
2019-05-20T09:12:52.193Z,3.80
2019-05-20T09:15:21.358Z,4.17
2019-05-20T09:17:50.479Z,3.70
2019-05-20T09:20:19.691Z,3.30
2019-05-20T09:22:48.832Z,3.83
2019-05-20T09:25:21.010Z,3.90
2019-05-20T09:27:49.935Z,2.80
2019-05-20T09:30:19.331Z,4.00
2019-05-20T09:32:48.659Z,3.27
2019-05-20T09:35:17.682Z,2.63
2019-05-20T09:37:46.540Z,4.47
2019-05-20T09:40:22.895Z,3.70
2019-05-20T09:42:51.890Z,3.47
2019-05-20T09:45:20.819Z,4.43
2019-05-20T09:47:49.681Z,4.90
2019-05-20T09:50:18.628Z,6.03
2019-05-20T09:52:47.590Z,5.50
2019-05-20T09:55:16.612Z,3.30
2019-05-20T09:57:45.544Z,4.30
2019-05-20T10:00:14.960Z,4.77
2019-05-20T10:02:43.842Z,4.83
2019-05-20T10:05:13.006Z,4.50
2019-05-20T10:07:42.188Z,5.33
2019-05-20T10:10:11.380Z,3.13
2019-05-20T10:12:46.462Z,3.00
2019-05-20T10:15:12.588Z,4.73
2019-05-20T10:17:41.478Z,4.40
2019-05-20T10:20:10.910Z,6.83
2019-05-20T10:22:40.059Z,5.47
2019-05-20T10:25:10.321Z,7.17
2019-05-20T10:27:39.641Z,3.63
2019-05-20T10:30:09.800Z,10.00
2019-05-20T10:32:38.935Z,5.37
2019-05-20T10:35:09.634Z,9.27
2019-05-20T10:37:38.690Z,3.47
2019-05-20T10:40:08.105Z,6.70
2019-05-20T10:42:37.191Z,8.37
2019-05-20T10:45:06.407Z,11.90
2019-05-20T10:47:35.365Z,6.17
2019-05-20T10:50:04.785Z,6.90
2019-05-20T10:52:33.653Z,10.10
2019-05-20T10:55:02.583Z,8.53
2019-05-20T10:57:31.626Z,7.33
2019-05-20T11:00:00.639Z,7.50
2019-05-20T11:02:31.295Z,8.57
2019-05-20T11:05:00.338Z,11.37
2019-05-20T11:07:29.282Z,5.67
2019-05-20T11:09:58.166Z,11.57
2019-05-20T11:12:27.123Z,9.77
2019-05-20T11:14:56.159Z,9.60
2019-05-20T11:17:25.035Z,7.00
2019-05-20T11:19:54.029Z,6.47
2019-05-20T11:22:23.059Z,9.10
2019-05-20T11:24:51.990Z,10.40
2019-05-20T11:27:21.014Z,10.80
2019-05-20T11:29:50.057Z,7.53
2019-05-20T11:32:19.060Z,10.93
2019-05-20T11:34:48.193Z,7.80
2019-05-20T11:37:17.128Z,9.47
2019-05-20T11:39:46.155Z,7.13
2019-05-20T11:42:15.236Z,9.23
2019-05-20T11:44:44.115Z,9.53
2019-05-20T11:47:13.063Z,8.10
2019-05-20T11:49:41.972Z,8.90
2019-05-20T11:52:11.046Z,9.50
2019-05-20T11:54:39.978Z,12.27
2019-05-20T11:57:08.918Z,4.47
2019-05-20T11:59:37.821Z,9.83
2019-05-20T12:02:06.945Z,13.20
2019-05-20T12:04:35.808Z,13.70
2019-05-20T12:07:04.753Z,12.70
2019-05-20T12:09:48.295Z,8.97
2019-05-20T12:12:04.418Z,12.43
2019-05-20T12:14:33.302Z,10.83
2019-05-20T12:17:02.309Z,13.13
2019-05-20T12:19:31.257Z,13.87
2019-05-20T12:22:00.305Z,13.47
2019-05-20T12:24:29.243Z,14.03
2019-05-20T12:26:58.231Z,9.67
2019-05-20T12:29:27.108Z,15.37
2019-05-20T12:31:56.015Z,10.10
2019-05-20T12:34:24.903Z,15.20
2019-05-20T12:36:53.772Z,3.33
2019-05-20T12:39:22.767Z,8.90
2019-05-20T12:41:51.805Z,11.83
2019-05-20T12:44:20.788Z,13.07
2019-05-20T12:46:49.735Z,13.10
2019-05-20T12:49:18.833Z,13.37
2019-05-20T12:51:47.978Z,15.10
2019-05-20T12:54:17.042Z,15.87
2019-05-20T12:56:46.044Z,14.70
2019-05-20T12:59:14.977Z,14.10
2019-05-20T13:01:43.875Z,14.33
2019-05-20T13:04:12.849Z,13.33
2019-05-20T13:06:41.949Z,12.63
2019-05-20T13:09:11.040Z,15.20
2019-05-20T13:11:40.078Z,16.40
2019-05-20T13:14:09.100Z,15.83
2019-05-20T13:16:37.952Z,15.87
2019-05-20T13:19:06.966Z,16.03
2019-05-20T13:21:35.929Z,10.83
2019-05-20T13:24:04.944Z,12.57
2019-05-20T13:26:33.890Z,7.37
2019-05-20T13:29:02.865Z,12.20
2019-05-20T13:31:50.984Z,14.67
2019-05-20T13:34:19.871Z,13.47
2019-05-20T13:36:48.826Z,15.07
2019-05-20T13:39:17.812Z,8.37
2019-05-20T13:41:46.871Z,6.67
2019-05-20T13:44:15.848Z,13.47
2019-05-20T13:46:44.945Z,13.37
2019-05-20T13:49:13.850Z,8.00
2019-05-20T13:51:42.823Z,18.47
2019-05-20T13:54:12.160Z,6.60
2019-05-20T13:56:41.472Z,7.30
2019-05-20T13:59:10.435Z,15.80
2019-05-20T14:01:39.412Z,20.87
2019-05-20T14:04:08.513Z,8.53
2019-05-20T14:06:37.502Z,19.83
2019-05-20T14:09:07.858Z,15.87
2019-05-20T14:11:37.128Z,15.07
2019-05-20T14:14:06.172Z,18.30
2019-05-20T14:16:35.149Z,19.43
2019-05-20T14:19:04.131Z,16.37
2019-05-20T14:21:33.147Z,8.27
2019-05-20T14:24:02.132Z,11.67
2019-05-20T14:26:31.356Z,9.53
2019-05-20T14:29:00.367Z,12.80
2019-05-20T14:31:29.339Z,14.77
2019-05-20T14:33:58.198Z,18.80
2019-05-20T14:36:39.574Z,13.53
2019-05-20T14:38:57.703Z,18.30
2019-05-20T14:41:26.727Z,13.93
2019-05-20T14:43:55.662Z,7.10
2019-05-20T14:46:24.636Z,13.20
2019-05-20T14:48:53.519Z,10.80
2019-05-20T14:51:22.491Z,19.20
2019-05-20T14:53:51.570Z,7.33
2019-05-20T14:56:20.619Z,14.43
2019-05-20T14:58:49.595Z,9.30
2019-05-20T15:01:18.493Z,9.03
2019-05-20T15:03:47.463Z,9.03
2019-05-20T15:06:16.415Z,8.53
2019-05-20T15:08:45.393Z,9.33
2019-05-20T15:11:14.439Z,11.13
2019-05-20T15:13:43.451Z,8.87
2019-05-20T15:16:12.556Z,10.23
2019-05-20T15:18:41.619Z,7.57
2019-05-20T15:21:10.743Z,7.33
2019-05-20T15:23:39.778Z,7.57
2019-05-20T15:26:08.752Z,8.37
2019-05-20T15:28:37.710Z,9.33
2019-05-20T15:31:06.707Z,5.37
2019-05-20T15:33:35.739Z,9.77
2019-05-20T15:36:04.767Z,8.60
2019-05-20T15:38:33.631Z,6.63
2019-05-20T15:41:02.629Z,9.17
2019-05-20T15:43:31.708Z,8.03
2019-05-20T15:46:00.906Z,8.87
2019-05-20T15:48:29.886Z,9.37
2019-05-20T15:50:58.861Z,9.20
2019-05-20T15:53:27.840Z,9.83
2019-05-20T15:55:56.800Z,9.13
2019-05-20T15:58:25.806Z,7.90
2019-05-20T16:00:54.702Z,10.73
2019-05-20T16:03:23.691Z,7.30
2019-05-20T16:05:52.618Z,10.90
2019-05-20T16:08:21.771Z,6.83
2019-05-20T16:10:50.708Z,6.83
2019-05-20T16:13:19.723Z,9.03
2019-05-20T16:15:48.662Z,10.27
2019-05-20T16:18:17.682Z,8.47
2019-05-20T16:20:46.570Z,9.63
2019-05-20T16:23:15.547Z,10.73
2019-05-20T16:25:44.435Z,10.13
2019-05-20T16:28:13.405Z,7.33
2019-05-20T16:30:42.632Z,9.50
2019-05-20T16:33:11.584Z,8.17
2019-05-20T16:35:40.543Z,13.37
2019-05-20T16:38:09.550Z,12.07
2019-05-20T16:40:38.861Z,12.00
2019-05-20T16:43:08.020Z,9.97
2019-05-20T16:45:36.957Z,13.63
2019-05-20T16:48:05.905Z,10.40
2019-05-20T16:50:34.804Z,10.87
2019-05-20T16:53:03.947Z,13.23
2019-05-20T16:55:32.929Z,12.10
2019-05-20T16:58:01.890Z,13.13
2019-05-20T17:00:32.315Z,10.07
2019-05-20T17:03:01.949Z,8.67
2019-05-20T17:05:31.056Z,7.13
2019-05-20T17:08:00.038Z,8.30
2019-05-20T17:10:29.155Z,11.97
2019-05-20T17:12:58.064Z,9.07
2019-05-20T17:15:26.994Z,11.33
2019-05-20T17:17:55.895Z,13.13
2019-05-20T17:20:24.876Z,12.47
2019-05-20T17:22:53.879Z,8.90
2019-05-20T17:25:22.981Z,12.70
2019-05-20T17:27:51.940Z,10.67
2019-05-20T17:30:20.974Z,8.30
2019-05-20T17:32:49.890Z,9.00
2019-05-20T17:35:18.898Z,8.83
2019-05-20T17:37:47.850Z,7.53
2019-05-20T17:40:18.551Z,8.73
2019-05-20T17:42:47.573Z,6.73
2019-05-20T17:45:17.822Z,8.43
2019-05-20T17:47:46.879Z,6.83
2019-05-20T17:50:16.800Z,5.63
2019-05-20T17:52:46.097Z,10.40
2019-05-20T17:55:15.799Z,8.07
2019-05-20T17:57:44.694Z,7.23
2019-05-20T18:00:18.726Z,10.43
2019-05-20T18:02:47.688Z,10.50
2019-05-20T18:05:16.869Z,11.60
2019-05-20T18:07:45.819Z,7.57
2019-05-20T18:10:17.427Z,8.97
2019-05-20T18:12:46.333Z,14.27
2019-05-20T18:15:15.573Z,12.40
2019-05-20T18:17:44.744Z,14.37
2019-05-20T18:20:14.731Z,14.27
2019-05-20T18:22:43.737Z,14.43
2019-05-20T18:25:13.162Z,12.90
2019-05-20T18:27:42.140Z,12.73
2019-05-20T18:30:12.177Z,12.07
2019-05-20T18:32:41.043Z,12.17
2019-05-20T18:35:10.338Z,13.57
2019-05-20T18:37:39.395Z,13.07
2019-05-20T18:40:14.264Z,12.83
2019-05-20T18:42:43.526Z,7.70
2019-05-20T18:45:12.641Z,11.90
2019-05-20T18:47:41.701Z,11.83
2019-05-20T18:50:11.426Z,12.33
2019-05-20T18:52:40.368Z,13.97
2019-05-20T18:55:09.673Z,13.40
2019-05-20T18:57:38.628Z,10.47
2019-05-20T19:00:09.980Z,13.17
2019-05-20T19:02:39.259Z,9.53
2019-05-20T19:05:08.718Z,14.17
2019-05-20T19:07:37.744Z,11.60
2019-05-20T19:10:06.998Z,16.40
2019-05-20T19:12:36.023Z,15.87
2019-05-20T19:15:05.246Z,10.77
2019-05-20T19:17:34.310Z,17.50
2019-05-20T19:20:03.479Z,17.83
2019-05-20T19:22:32.567Z,9.90
2019-05-20T19:25:03.445Z,16.07
2019-05-20T19:27:32.429Z,8.07
2019-05-20T19:30:01.333Z,13.70
2019-05-20T19:32:30.386Z,14.40
2019-05-20T19:35:00.905Z,13.87
2019-05-20T19:37:29.881Z,14.67
2019-05-20T19:39:59.091Z,15.23
2019-05-20T19:42:29.337Z,16.00
2019-05-20T19:44:58.318Z,16.70
2019-05-20T19:47:39.325Z,15.87
2019-05-20T19:50:09.466Z,6.73
2019-05-20T19:52:38.434Z,15.53
2019-05-20T19:55:07.873Z,13.77
2019-05-20T19:57:36.851Z,15.10
2019-05-20T20:00:06.418Z,15.77
2019-05-20T20:02:35.405Z,13.50
2019-05-20T20:05:05.617Z,17.67
2019-05-20T20:07:34.577Z,13.83
2019-05-20T20:10:03.849Z,15.50
2019-05-20T20:12:33.616Z,18.00
2019-05-20T20:15:02.665Z,16.00
2019-05-20T20:17:31.587Z,10.80
2019-05-20T20:20:00.465Z,11.57
2019-05-20T20:22:29.436Z,13.23
2019-05-20T20:24:58.277Z,17.50
2019-05-20T20:27:27.226Z,14.47
2019-05-20T20:29:56.103Z,19.03
2019-05-20T20:32:37.405Z,17.03
2019-05-20T20:34:55.588Z,13.43
2019-05-20T20:37:24.594Z,17.57
2019-05-20T20:39:53.480Z,13.33
2019-05-20T20:42:22.516Z,19.43
2019-05-20T20:44:51.459Z,18.53
2019-05-20T20:47:20.431Z,12.60
2019-05-20T20:49:49.456Z,18.60
2019-05-20T20:52:18.366Z,13.67
2019-05-20T20:54:47.305Z,15.07
2019-05-20T20:57:16.201Z,16.00
2019-05-20T20:59:45.114Z,12.63
2019-05-20T21:02:14.017Z,17.20
2019-05-20T21:04:43.093Z,16.70
2019-05-20T21:07:12.145Z,15.93
2019-05-20T21:09:41.195Z,7.60
2019-05-20T21:12:10.059Z,12.50
2019-05-20T21:14:39.135Z,16.47
2019-05-20T21:17:08.291Z,14.50
2019-05-20T21:19:37.325Z,16.53
2019-05-20T21:22:06.321Z,14.33
2019-05-20T21:24:35.383Z,14.47
2019-05-20T21:27:04.536Z,11.13
2019-05-20T21:29:33.747Z,14.47
2019-05-20T21:32:02.897Z,6.83
2019-05-20T21:34:33.200Z,14.80
2019-05-20T21:37:02.388Z,15.07
2019-05-20T21:39:31.672Z,14.90
2019-05-20T21:42:01.057Z,10.13
2019-05-20T21:44:29.925Z,16.40
2019-05-20T21:46:58.797Z,13.43
2019-05-20T21:49:27.864Z,15.70
2019-05-20T21:51:56.965Z,14.67
2019-05-20T21:54:25.963Z,17.03
2019-05-20T21:56:55.058Z,13.90
2019-05-20T21:59:24.057Z,13.70
2019-05-20T22:01:53.167Z,12.90
2019-05-20T22:04:22.356Z,11.07
2019-05-20T22:06:51.566Z,12.37
2019-05-20T22:09:20.548Z,14.53
2019-05-20T22:11:49.500Z,6.13
2019-05-20T22:14:18.446Z,9.07
2019-05-20T22:16:47.483Z,13.73
2019-05-20T22:19:16.499Z,12.97
2019-05-20T22:22:00.533Z,8.57
2019-05-20T22:24:29.500Z,11.43
2019-05-20T22:26:58.428Z,13.60
2019-05-20T22:29:27.419Z,14.20
2019-05-20T22:31:56.305Z,13.60
2019-05-20T22:34:25.179Z,12.73
2019-05-20T22:36:54.324Z,13.50
2019-05-20T22:39:23.462Z,10.93
2019-05-20T22:41:52.585Z,12.10
2019-05-20T22:44:21.527Z,12.10
2019-05-20T22:46:50.590Z,10.17
2019-05-20T22:49:19.742Z,11.10
2019-05-20T22:51:48.824Z,7.87
2019-05-20T22:54:17.910Z,10.90
2019-05-20T22:56:47.096Z,10.53
2019-05-20T22:59:16.098Z,10.90
2019-05-20T23:01:45.282Z,9.17
2019-05-20T23:04:14.471Z,10.50
2019-05-20T23:06:43.585Z,9.30
2019-05-20T23:09:14.869Z,9.87
2019-05-20T23:11:43.467Z,7.77
2019-05-20T23:14:12.467Z,8.50
2019-05-20T23:16:41.589Z,7.37
2019-05-20T23:19:10.707Z,6.93
2019-05-20T23:21:39.661Z,6.50
2019-05-20T23:24:08.615Z,7.13
2019-05-20T23:26:37.566Z,6.67
2019-05-20T23:29:06.427Z,6.70
2019-05-20T23:31:35.400Z,7.00
2019-05-20T23:34:12.654Z,7.23
2019-05-20T23:36:34.992Z,7.73
2019-05-20T23:39:06.385Z,7.37
2019-05-20T23:41:35.373Z,7.30
2019-05-20T23:44:04.419Z,6.23
2019-05-20T23:46:33.421Z,6.33
2019-05-20T23:49:02.327Z,7.10
2019-05-20T23:51:31.362Z,7.23
2019-05-20T23:54:00.357Z,6.90
2019-05-20T23:56:29.339Z,7.13
2019-05-20T23:58:58.226Z,6.13
